sensor_id;sensor_type;location;lat;lon;timestamp;P1;durP1;ratioP1;P2;durP2;ratioP2
21754;SDS011;11039;50.028;19.938;2022-09-09T00:00:22;3.83;;;2.45;;
21754;SDS011;11039;50.028;19.938;2022-09-09T00:02:57;3.60;;;2.78;;
21754;SDS011;11039;50.028;19.938;2022-09-09T00:05:28;4.80;;;3.00;;
21754;SDS011;11039;50.028;19.938;2022-09-09T00:07:55;5.05;;;3.03;;
21754;SDS011;11039;50.028;19.938;2022-09-09T00:10:37;3.35;;;2.88;;
21754;SDS011;11039;50.028;19.938;2022-09-09T00:23:30;4.78;;;2.78;;
21754;SDS011;11039;50.028;19.938;2022-09-09T00:28:27;5.40;;;3.03;;
21754;SDS011;11039;50.028;19.938;2022-09-09T00:30:59;5.40;;;2.80;;
21754;SDS011;11039;50.028;19.938;2022-09-09T00:33:26;3.92;;;2.70;;
21754;SDS011;11039;50.028;19.938;2022-09-09T00:35:58;4.22;;;2.25;;
21754;SDS011;11039;50.028;19.938;2022-09-09T00:41:06;5.07;;;2.95;;
21754;SDS011;11039;50.028;19.938;2022-09-09T00:43:36;3.95;;;2.80;;
21754;SDS011;11039;50.028;19.938;2022-09-09T00:51:28;4.95;;;2.90;;
21754;SDS011;11039;50.028;19.938;2022-09-09T00:54:40;5.05;;;3.10;;
21754;SDS011;11039;50.028;19.938;2022-09-09T00:56:54;3.15;;;2.35;;
21754;SDS011;11039;50.028;19.938;2022-09-09T00:59:31;4.20;;;2.95;;
21754;SDS011;11039;50.028;19.938;2022-09-09T01:02:02;4.60;;;2.80;;
21754;SDS011;11039;50.028;19.938;2022-09-09T01:04:33;3.53;;;2.60;;
21754;SDS011;11039;50.028;19.938;2022-09-09T01:07:03;4.95;;;2.95;;
21754;SDS011;11039;50.028;19.938;2022-09-09T01:09:45;4.05;;;3.10;;
21754;SDS011;11039;50.028;19.938;2022-09-09T01:14:44;5.22;;;3.00;;
21754;SDS011;11039;50.028;19.938;2022-09-09T01:25:21;3.08;;;2.47;;
21754;SDS011;11039;50.028;19.938;2022-09-09T01:27:27;4.43;;;2.53;;
21754;SDS011;11039;50.028;19.938;2022-09-09T01:29:53;5.32;;;2.90;;
21754;SDS011;11039;50.028;19.938;2022-09-09T01:35:32;3.88;;;2.67;;
21754;SDS011;11039;50.028;19.938;2022-09-09T01:38:02;4.05;;;2.53;;
21754;SDS011;11039;50.028;19.938;2022-09-09T01:40:28;4.00;;;2.90;;
21754;SDS011;11039;50.028;19.938;2022-09-09T01:42:54;3.70;;;2.50;;
21754;SDS011;11039;50.028;19.938;2022-09-09T01:45:20;3.97;;;2.80;;
21754;SDS011;11039;50.028;19.938;2022-09-09T01:47:47;3.90;;;2.40;;
21754;SDS011;11039;50.028;19.938;2022-09-09T01:50:14;3.80;;;2.63;;
21754;SDS011;11039;50.028;19.938;2022-09-09T01:52:40;4.25;;;2.80;;
21754;SDS011;11039;50.028;19.938;2022-09-09T01:55:07;4.03;;;2.55;;
21754;SDS011;11039;50.028;19.938;2022-09-09T02:00:05;5.35;;;3.42;;
21754;SDS011;11039;50.028;19.938;2022-09-09T02:02:35;4.72;;;2.60;;
21754;SDS011;11039;50.028;19.938;2022-09-09T02:05:25;8.30;;;2.70;;
21754;SDS011;11039;50.028;19.938;2022-09-09T02:08:03;3.25;;;2.33;;
21754;SDS011;11039;50.028;19.938;2022-09-09T02:13:01;4.90;;;2.80;;
21754;SDS011;11039;50.028;19.938;2022-09-09T02:15:30;3.20;;;2.53;;
21754;SDS011;11039;50.028;19.938;2022-09-09T02:17:58;3.25;;;2.20;;
21754;SDS011;11039;50.028;19.938;2022-09-09T02:20:24;6.07;;;2.67;;
21754;SDS011;11039;50.028;19.938;2022-09-09T02:22:52;3.72;;;2.55;;
21754;SDS011;11039;50.028;19.938;2022-09-09T02:25:19;3.53;;;2.55;;
21754;SDS011;11039;50.028;19.938;2022-09-09T02:27:47;3.53;;;2.50;;
21754;SDS011;11039;50.028;19.938;2022-09-09T02:30:16;3.55;;;2.67;;
21754;SDS011;11039;50.028;19.938;2022-09-09T02:32:42;5.15;;;2.60;;
21754;SDS011;11039;50.028;19.938;2022-09-09T02:35:10;4.70;;;2.67;;
21754;SDS011;11039;50.028;19.938;2022-09-09T02:37:38;4.03;;;2.70;;
21754;SDS011;11039;50.028;19.938;2022-09-09T02:40:06;4.93;;;2.47;;
21754;SDS011;11039;50.028;19.938;2022-09-09T02:42:34;4.25;;;2.95;;
21754;SDS011;11039;50.028;19.938;2022-09-09T02:45:04;3.33;;;2.60;;
21754;SDS011;11039;50.028;19.938;2022-09-09T02:47:33;5.03;;;2.95;;
21754;SDS011;11039;50.028;19.938;2022-09-09T02:50:07;4.95;;;2.83;;
21754;SDS011;11039;50.028;19.938;2022-09-09T02:55:04;5.35;;;2.83;;
21754;SDS011;11039;50.028;19.938;2022-09-09T02:57:32;4.50;;;2.80;;
21754;SDS011;11039;50.028;19.938;2022-09-09T02:59:58;3.80;;;2.72;;
21754;SDS011;11039;50.028;19.938;2022-09-09T03:02:25;3.92;;;2.92;;
21754;SDS011;11039;50.028;19.938;2022-09-09T03:04:51;4.15;;;3.10;;
21754;SDS011;11039;50.028;19.938;2022-09-09T03:07:18;7.65;;;3.33;;
21754;SDS011;11039;50.028;19.938;2022-09-09T03:09:44;5.70;;;3.20;;
21754;SDS011;11039;50.028;19.938;2022-09-09T03:12:10;4.00;;;3.08;;
21754;SDS011;11039;50.028;19.938;2022-09-09T03:14:37;4.45;;;2.67;;
21754;SDS011;11039;50.028;19.938;2022-09-09T03:17:03;4.00;;;2.75;;
21754;SDS011;11039;50.028;19.938;2022-09-09T03:19:29;5.97;;;3.10;;
21754;SDS011;11039;50.028;19.938;2022-09-09T03:21:56;4.50;;;3.25;;
21754;SDS011;11039;50.028;19.938;2022-09-09T03:24:23;4.90;;;3.08;;
21754;SDS011;11039;50.028;19.938;2022-09-09T03:26:49;6.65;;;3.42;;
21754;SDS011;11039;50.028;19.938;2022-09-09T03:29:15;4.72;;;3.13;;
21754;SDS011;11039;50.028;19.938;2022-09-09T03:31:43;5.80;;;3.20;;
21754;SDS011;11039;50.028;19.938;2022-09-09T03:34:09;5.30;;;3.17;;
21754;SDS011;11039;50.028;19.938;2022-09-09T03:36:35;4.68;;;3.50;;
21754;SDS011;11039;50.028;19.938;2022-09-09T03:39:01;5.80;;;3.22;;
21754;SDS011;11039;50.028;19.938;2022-09-09T03:41:28;4.82;;;3.28;;
21754;SDS011;11039;50.028;19.938;2022-09-09T03:43:54;6.63;;;2.90;;
21754;SDS011;11039;50.028;19.938;2022-09-09T03:46:21;8.07;;;3.30;;
21754;SDS011;11039;50.028;19.938;2022-09-09T03:48:47;7.85;;;3.20;;
21754;SDS011;11039;50.028;19.938;2022-09-09T03:51:13;5.30;;;3.10;;
21754;SDS011;11039;50.028;19.938;2022-09-09T03:53:40;3.50;;;2.70;;
21754;SDS011;11039;50.028;19.938;2022-09-09T03:56:06;3.10;;;2.60;;
21754;SDS011;11039;50.028;19.938;2022-09-09T03:58:36;3.83;;;2.72;;
21754;SDS011;11039;50.028;19.938;2022-09-09T04:01:03;5.00;;;2.80;;
21754;SDS011;11039;50.028;19.938;2022-09-09T04:03:30;5.63;;;2.63;;
21754;SDS011;11039;50.028;19.938;2022-09-09T04:05:57;4.18;;;2.45;;
21754;SDS011;11039;50.028;19.938;2022-09-09T04:08:23;4.28;;;2.80;;
21754;SDS011;11039;50.028;19.938;2022-09-09T04:10:50;5.45;;;2.58;;
21754;SDS011;11039;50.028;19.938;2022-09-09T04:13:17;3.83;;;2.47;;
21754;SDS011;11039;50.028;19.938;2022-09-09T04:15:43;6.88;;;2.65;;
21754;SDS011;11039;50.028;19.938;2022-09-09T04:18:10;4.88;;;2.65;;
21754;SDS011;11039;50.028;19.938;2022-09-09T04:20:36;3.92;;;2.33;;
21754;SDS011;11039;50.028;19.938;2022-09-09T04:23:03;4.82;;;2.63;;
21754;SDS011;11039;50.028;19.938;2022-09-09T04:25:30;5.18;;;2.40;;
21754;SDS011;11039;50.028;19.938;2022-09-09T04:27:56;4.97;;;2.63;;
21754;SDS011;11039;50.028;19.938;2022-09-09T04:30:23;3.53;;;2.35;;
21754;SDS011;11039;50.028;19.938;2022-09-09T04:32:49;5.00;;;2.10;;
21754;SDS011;11039;50.028;19.938;2022-09-09T04:35:16;3.63;;;2.47;;
21754;SDS011;11039;50.028;19.938;2022-09-09T04:37:43;4.50;;;2.28;;
21754;SDS011;11039;50.028;19.938;2022-09-09T04:40:09;3.72;;;2.42;;
21754;SDS011;11039;50.028;19.938;2022-09-09T04:42:36;4.72;;;2.20;;
21754;SDS011;11039;50.028;19.938;2022-09-09T04:45:02;2.83;;;2.15;;
21754;SDS011;11039;50.028;19.938;2022-09-09T04:47:28;2.92;;;2.30;;
21754;SDS011;11039;50.028;19.938;2022-09-09T04:49:54;3.33;;;2.45;;
21754;SDS011;11039;50.028;19.938;2022-09-09T04:52:21;4.45;;;2.13;;
21754;SDS011;11039;50.028;19.938;2022-09-09T04:54:47;4.82;;;2.10;;
21754;SDS011;11039;50.028;19.938;2022-09-09T04:57:13;3.40;;;2.42;;
21754;SDS011;11039;50.028;19.938;2022-09-09T04:59:39;3.50;;;2.25;;
21754;SDS011;11039;50.028;19.938;2022-09-09T05:02:05;3.42;;;2.13;;
21754;SDS011;11039;50.028;19.938;2022-09-09T05:04:31;4.55;;;2.40;;
21754;SDS011;11039;50.028;19.938;2022-09-09T05:06:58;5.00;;;2.10;;
21754;SDS011;11039;50.028;19.938;2022-09-09T05:09:24;2.90;;;2.05;;
21754;SDS011;11039;50.028;19.938;2022-09-09T05:11:50;3.97;;;2.30;;
21754;SDS011;11039;50.028;19.938;2022-09-09T05:14:16;6.18;;;2.38;;
21754;SDS011;11039;50.028;19.938;2022-09-09T05:16:44;4.20;;;2.40;;
21754;SDS011;11039;50.028;19.938;2022-09-09T05:19:12;3.72;;;2.17;;
21754;SDS011;11039;50.028;19.938;2022-09-09T05:21:37;4.95;;;2.35;;
21754;SDS011;11039;50.028;19.938;2022-09-09T05:24:03;2.67;;;2.10;;
21754;SDS011;11039;50.028;19.938;2022-09-09T05:26:30;4.80;;;2.55;;
21754;SDS011;11039;50.028;19.938;2022-09-09T05:28:57;3.63;;;2.03;;
21754;SDS011;11039;50.028;19.938;2022-09-09T05:31:25;4.88;;;2.40;;
21754;SDS011;11039;50.028;19.938;2022-09-09T05:33:53;4.93;;;2.13;;
21754;SDS011;11039;50.028;19.938;2022-09-09T05:36:20;3.83;;;2.22;;
21754;SDS011;11039;50.028;19.938;2022-09-09T05:38:46;3.40;;;2.17;;
21754;SDS011;11039;50.028;19.938;2022-09-09T05:41:13;3.28;;;2.15;;
21754;SDS011;11039;50.028;19.938;2022-09-09T05:43:42;3.13;;;1.90;;
21754;SDS011;11039;50.028;19.938;2022-09-09T05:46:16;4.70;;;2.60;;
21754;SDS011;11039;50.028;19.938;2022-09-09T05:48:43;3.05;;;2.10;;
21754;SDS011;11039;50.028;19.938;2022-09-09T05:51:11;2.88;;;2.17;;
21754;SDS011;11039;50.028;19.938;2022-09-09T05:53:40;4.47;;;2.20;;
21754;SDS011;11039;50.028;19.938;2022-09-09T05:56:07;3.28;;;1.98;;
21754;SDS011;11039;50.028;19.938;2022-09-09T05:58:37;3.40;;;2.10;;
21754;SDS011;11039;50.028;19.938;2022-09-09T06:01:04;5.93;;;2.70;;
21754;SDS011;11039;50.028;19.938;2022-09-09T06:03:31;3.25;;;2.30;;
21754;SDS011;11039;50.028;19.938;2022-09-09T06:05:58;8.90;;;2.58;;
21754;SDS011;11039;50.028;19.938;2022-09-09T06:08:24;4.60;;;2.40;;
21754;SDS011;11039;50.028;19.938;2022-09-09T06:10:50;5.10;;;2.17;;
21754;SDS011;11039;50.028;19.938;2022-09-09T06:13:17;3.83;;;2.30;;
21754;SDS011;11039;50.028;19.938;2022-09-09T06:15:52;5.38;;;2.40;;
21754;SDS011;11039;50.028;19.938;2022-09-09T06:18:18;3.85;;;2.17;;
21754;SDS011;11039;50.028;19.938;2022-09-09T06:20:57;4.63;;;2.03;;
21754;SDS011;11039;50.028;19.938;2022-09-09T06:23:24;2.50;;;1.70;;
21754;SDS011;11039;50.028;19.938;2022-09-09T06:25:51;2.83;;;1.55;;
21754;SDS011;11039;50.028;19.938;2022-09-09T06:28:17;3.33;;;2.20;;
21754;SDS011;11039;50.028;19.938;2022-09-09T06:30:44;4.00;;;2.10;;
21754;SDS011;11039;50.028;19.938;2022-09-09T06:33:10;2.97;;;2.50;;
21754;SDS011;11039;50.028;19.938;2022-09-09T06:35:36;4.53;;;2.10;;
21754;SDS011;11039;50.028;19.938;2022-09-09T06:38:02;3.50;;;1.95;;
21754;SDS011;11039;50.028;19.938;2022-09-09T06:40:28;4.85;;;2.85;;
21754;SDS011;11039;50.028;19.938;2022-09-09T06:42:58;4.68;;;2.88;;
21754;SDS011;11039;50.028;19.938;2022-09-09T06:45:24;4.43;;;3.30;;
21754;SDS011;11039;50.028;19.938;2022-09-09T06:47:50;7.82;;;2.80;;
21754;SDS011;11039;50.028;19.938;2022-09-09T06:50:17;4.65;;;2.38;;
21754;SDS011;11039;50.028;19.938;2022-09-09T06:52:45;6.45;;;3.13;;
21754;SDS011;11039;50.028;19.938;2022-09-09T06:55:12;7.32;;;2.83;;
21754;SDS011;11039;50.028;19.938;2022-09-09T06:57:40;6.63;;;2.70;;
21754;SDS011;11039;50.028;19.938;2022-09-09T07:00:06;4.93;;;3.17;;
21754;SDS011;11039;50.028;19.938;2022-09-09T07:02:33;3.28;;;2.50;;
21754;SDS011;11039;50.028;19.938;2022-09-09T07:05:03;3.63;;;2.50;;
21754;SDS011;11039;50.028;19.938;2022-09-09T07:07:30;6.45;;;2.92;;
21754;SDS011;11039;50.028;19.938;2022-09-09T07:09:56;4.22;;;3.03;;
21754;SDS011;11039;50.028;19.938;2022-09-09T07:12:22;3.90;;;2.50;;
21754;SDS011;11039;50.028;19.938;2022-09-09T07:14:48;4.45;;;2.70;;
21754;SDS011;11039;50.028;19.938;2022-09-09T07:17:14;6.53;;;3.10;;
21754;SDS011;11039;50.028;19.938;2022-09-09T07:19:40;5.93;;;3.28;;
21754;SDS011;11039;50.028;19.938;2022-09-09T07:22:06;3.20;;;2.40;;
21754;SDS011;11039;50.028;19.938;2022-09-09T07:24:32;5.50;;;2.67;;
21754;SDS011;11039;50.028;19.938;2022-09-09T07:26:58;4.53;;;2.58;;
21754;SDS011;11039;50.028;19.938;2022-09-09T07:29:24;8.57;;;3.20;;
21754;SDS011;11039;50.028;19.938;2022-09-09T07:31:50;2.88;;;2.33;;
21754;SDS011;11039;50.028;19.938;2022-09-09T07:34:16;5.95;;;2.60;;
21754;SDS011;11039;50.028;19.938;2022-09-09T07:36:43;6.18;;;2.47;;
21754;SDS011;11039;50.028;19.938;2022-09-09T07:39:10;3.40;;;2.60;;
21754;SDS011;11039;50.028;19.938;2022-09-09T07:41:43;7.15;;;2.22;;
21754;SDS011;11039;50.028;19.938;2022-09-09T07:44:10;5.35;;;2.55;;
21754;SDS011;11039;50.028;19.938;2022-09-09T07:46:37;3.08;;;2.20;;
21754;SDS011;11039;50.028;19.938;2022-09-09T07:49:07;2.15;;;1.80;;
21754;SDS011;11039;50.028;19.938;2022-09-09T07:51:37;3.50;;;2.20;;
21754;SDS011;11039;50.028;19.938;2022-09-09T07:54:08;3.10;;;2.17;;
21754;SDS011;11039;50.028;19.938;2022-09-09T07:56:37;4.95;;;2.38;;
21754;SDS011;11039;50.028;19.938;2022-09-09T07:59:04;4.53;;;2.50;;
21754;SDS011;11039;50.028;19.938;2022-09-09T08:01:41;3.53;;;1.90;;
21754;SDS011;11039;50.028;19.938;2022-09-09T08:04:09;5.03;;;2.15;;
21754;SDS011;11039;50.028;19.938;2022-09-09T08:06:40;4.18;;;1.90;;
21754;SDS011;11039;50.028;19.938;2022-09-09T08:09:07;4.90;;;2.08;;
21754;SDS011;11039;50.028;19.938;2022-09-09T08:11:33;2.63;;;1.90;;
21754;SDS011;11039;50.028;19.938;2022-09-09T08:14:00;2.72;;;2.00;;
21754;SDS011;11039;50.028;19.938;2022-09-09T08:16:28;2.65;;;1.85;;
21754;SDS011;11039;50.028;19.938;2022-09-09T08:18:55;4.22;;;2.00;;
21754;SDS011;11039;50.028;19.938;2022-09-09T08:21:22;2.40;;;1.80;;
21754;SDS011;11039;50.028;19.938;2022-09-09T08:23:50;2.65;;;1.95;;
21754;SDS011;11039;50.028;19.938;2022-09-09T08:26:20;2.75;;;1.63;;
21754;SDS011;11039;50.028;19.938;2022-09-09T08:28:47;3.70;;;1.83;;
21754;SDS011;11039;50.028;19.938;2022-09-09T08:31:17;2.92;;;1.63;;
21754;SDS011;11039;50.028;19.938;2022-09-09T08:33:44;2.17;;;1.67;;
21754;SDS011;11039;50.028;19.938;2022-09-09T08:36:12;4.22;;;2.03;;
21754;SDS011;11039;50.028;19.938;2022-09-09T08:38:40;2.78;;;1.92;;
21754;SDS011;11039;50.028;19.938;2022-09-09T08:41:20;1.73;;;1.48;;
21754;SDS011;11039;50.028;19.938;2022-09-09T08:43:48;2.47;;;1.77;;
21754;SDS011;11039;50.028;19.938;2022-09-09T08:48:55;2.85;;;1.75;;
21754;SDS011;11039;50.028;19.938;2022-09-09T08:51:23;3.17;;;2.00;;
21754;SDS011;11039;50.028;19.938;2022-09-09T08:53:51;4.00;;;1.70;;
21754;SDS011;11039;50.028;19.938;2022-09-09T08:56:27;2.47;;;1.70;;
21754;SDS011;11039;50.028;19.938;2022-09-09T08:58:54;2.58;;;1.75;;
21754;SDS011;11039;50.028;19.938;2022-09-09T09:09:21;4.63;;;1.90;;
21754;SDS011;11039;50.028;19.938;2022-09-09T09:11:51;3.55;;;1.75;;
21754;SDS011;11039;50.028;19.938;2022-09-09T09:14:19;2.15;;;1.38;;
21754;SDS011;11039;50.028;19.938;2022-09-09T09:19:14;3.72;;;1.77;;
21754;SDS011;11039;50.028;19.938;2022-09-09T09:21:42;2.55;;;1.70;;
21754;SDS011;11039;50.028;19.938;2022-09-09T09:26:43;2.13;;;1.55;;
21754;SDS011;11039;50.028;19.938;2022-09-09T09:29:10;1.83;;;1.60;;
21754;SDS011;11039;50.028;19.938;2022-09-09T09:31:37;2.45;;;1.75;;
21754;SDS011;11039;50.028;19.938;2022-09-09T09:34:03;4.05;;;1.88;;
21754;SDS011;11039;50.028;19.938;2022-09-09T09:36:33;3.88;;;2.05;;
21754;SDS011;11039;50.028;19.938;2022-09-09T09:39:00;3.47;;;1.80;;
21754;SDS011;11039;50.028;19.938;2022-09-09T09:41:34;3.05;;;1.95;;
21754;SDS011;11039;50.028;19.938;2022-09-09T09:44:00;2.72;;;1.80;;
21754;SDS011;11039;50.028;19.938;2022-09-09T09:46:27;2.20;;;1.90;;
21754;SDS011;11039;50.028;19.938;2022-09-09T09:49:11;2.72;;;1.70;;
21754;SDS011;11039;50.028;19.938;2022-09-09T09:51:38;4.25;;;1.95;;
21754;SDS011;11039;50.028;19.938;2022-09-09T09:54:16;2.90;;;1.58;;
21754;SDS011;11039;50.028;19.938;2022-09-09T09:56:44;2.92;;;1.70;;
21754;SDS011;11039;50.028;19.938;2022-09-09T10:01:45;3.67;;;2.08;;
21754;SDS011;11039;50.028;19.938;2022-09-09T10:04:16;2.55;;;1.77;;
21754;SDS011;11039;50.028;19.938;2022-09-09T10:06:43;4.60;;;1.95;;
21754;SDS011;11039;50.028;19.938;2022-09-09T10:19:16;1.70;;;1.50;;
21754;SDS011;11039;50.028;19.938;2022-09-09T10:24:29;2.75;;;1.60;;
21754;SDS011;11039;50.028;19.938;2022-09-09T10:39:53;1.83;;;1.38;;
21754;SDS011;11039;50.028;19.938;2022-09-09T10:42:23;1.63;;;1.30;;
21754;SDS011;11039;50.028;19.938;2022-09-09T10:44:57;2.75;;;1.52;;
21754;SDS011;11039;50.028;19.938;2022-09-09T10:55:16;2.08;;;1.25;;
21754;SDS011;11039;50.028;19.938;2022-09-09T10:57:47;1.98;;;1.35;;
21754;SDS011;11039;50.028;19.938;2022-09-09T11:00:15;2.80;;;1.67;;
21754;SDS011;11039;50.028;19.938;2022-09-09T11:02:43;1.50;;;1.33;;
21754;SDS011;11039;50.028;19.938;2022-09-09T11:05:17;2.22;;;1.35;;
21754;SDS011;11039;50.028;19.938;2022-09-09T11:07:48;3.05;;;1.30;;
21754;SDS011;11039;50.028;19.938;2022-09-09T11:13:03;2.17;;;1.30;;
21754;SDS011;11039;50.028;19.938;2022-09-09T11:15:39;1.52;;;1.25;;
21754;SDS011;11039;50.028;19.938;2022-09-09T11:18:06;3.72;;;1.40;;
21754;SDS011;11039;50.028;19.938;2022-09-09T11:20:34;2.42;;;1.40;;
21754;SDS011;11039;50.028;19.938;2022-09-09T11:23:02;4.18;;;1.00;;
21754;SDS011;11039;50.028;19.938;2022-09-09T11:25:48;1.67;;;1.08;;
21754;SDS011;11039;50.028;19.938;2022-09-09T11:28:54;2.60;;;1.40;;
21754;SDS011;11039;50.028;19.938;2022-09-09T11:34:08;1.65;;;1.25;;
21754;SDS011;11039;50.028;19.938;2022-09-09T11:36:49;1.27;;;0.93;;
21754;SDS011;11039;50.028;19.938;2022-09-09T11:41:49;1.65;;;1.35;;
21754;SDS011;11039;50.028;19.938;2022-09-09T11:44:19;1.63;;;1.30;;
21754;SDS011;11039;50.028;19.938;2022-09-09T11:46:50;2.70;;;1.30;;
21754;SDS011;11039;50.028;19.938;2022-09-09T11:49:30;1.85;;;1.40;;
21754;SDS011;11039;50.028;19.938;2022-09-09T11:54:46;2.00;;;1.15;;
21754;SDS011;11039;50.028;19.938;2022-09-09T11:57:23;2.47;;;1.30;;
21754;SDS011;11039;50.028;19.938;2022-09-09T11:59:51;2.13;;;1.30;;
21754;SDS011;11039;50.028;19.938;2022-09-09T12:02:24;1.48;;;1.20;;
21754;SDS011;11039;50.028;19.938;2022-09-09T12:07:22;1.67;;;1.25;;
21754;SDS011;11039;50.028;19.938;2022-09-09T12:14:56;1.98;;;1.30;;
21754;SDS011;11039;50.028;19.938;2022-09-09T12:17:23;1.35;;;1.20;;
21754;SDS011;11039;50.028;19.938;2022-09-09T12:22:37;1.70;;;0.90;;
21754;SDS011;11039;50.028;19.938;2022-09-09T12:27:55;1.70;;;1.10;;
21754;SDS011;11039;50.028;19.938;2022-09-09T12:30:28;3.08;;;1.40;;
21754;SDS011;11039;50.028;19.938;2022-09-09T12:33:00;1.35;;;1.00;;
21754;SDS011;11039;50.028;19.938;2022-09-09T12:35:27;2.13;;;1.10;;
21754;SDS011;11039;50.028;19.938;2022-09-09T12:37:56;3.90;;;1.23;;
21754;SDS011;11039;50.028;19.938;2022-09-09T12:40:24;1.35;;;1.13;;
21754;SDS011;11039;50.028;19.938;2022-09-09T12:42:51;1.92;;;1.23;;
21754;SDS011;11039;50.028;19.938;2022-09-09T12:45:21;2.30;;;1.33;;
21754;SDS011;11039;50.028;19.938;2022-09-09T12:50:19;2.08;;;1.20;;
21754;SDS011;11039;50.028;19.938;2022-09-09T12:52:47;1.83;;;1.30;;
21754;SDS011;11039;50.028;19.938;2022-09-09T12:55:19;2.50;;;1.20;;
21754;SDS011;11039;50.028;19.938;2022-09-09T12:57:46;3.05;;;1.35;;
21754;SDS011;11039;50.028;19.938;2022-09-09T13:00:20;2.10;;;1.30;;
21754;SDS011;11039;50.028;19.938;2022-09-09T13:02:48;1.45;;;1.35;;
21754;SDS011;11039;50.028;19.938;2022-09-09T13:05:16;1.65;;;1.20;;
21754;SDS011;11039;50.028;19.938;2022-09-09T13:07:43;1.58;;;1.10;;
21754;SDS011;11039;50.028;19.938;2022-09-09T13:10:12;1.98;;;1.15;;
21754;SDS011;11039;50.028;19.938;2022-09-09T13:12:38;1.45;;;1.30;;
21754;SDS011;11039;50.028;19.938;2022-09-09T13:15:09;1.48;;;1.00;;
21754;SDS011;11039;50.028;19.938;2022-09-09T13:17:38;2.17;;;1.30;;
21754;SDS011;11039;50.028;19.938;2022-09-09T13:20:06;1.67;;;1.20;;
21754;SDS011;11039;50.028;19.938;2022-09-09T13:22:37;2.40;;;1.63;;
21754;SDS011;11039;50.028;19.938;2022-09-09T13:27:35;1.25;;;1.13;;
21754;SDS011;11039;50.028;19.938;2022-09-09T13:30:19;2.25;;;1.50;;
21754;SDS011;11039;50.028;19.938;2022-09-09T13:32:47;2.00;;;1.33;;
21754;SDS011;11039;50.028;19.938;2022-09-09T13:35:23;3.90;;;1.33;;
21754;SDS011;11039;50.028;19.938;2022-09-09T13:37:50;1.48;;;1.08;;
21754;SDS011;11039;50.028;19.938;2022-09-09T13:40:20;2.25;;;1.45;;
21754;SDS011;11039;50.028;19.938;2022-09-09T13:42:46;1.42;;;1.25;;
21754;SDS011;11039;50.028;19.938;2022-09-09T13:45:17;2.25;;;1.27;;
21754;SDS011;11039;50.028;19.938;2022-09-09T13:47:45;1.90;;;1.33;;
21754;SDS011;11039;50.028;19.938;2022-09-09T13:50:19;1.70;;;1.20;;
21754;SDS011;11039;50.028;19.938;2022-09-09T13:52:46;2.72;;;1.10;;
21754;SDS011;11039;50.028;19.938;2022-09-09T13:55:12;2.10;;;1.23;;
21754;SDS011;11039;50.028;19.938;2022-09-09T13:57:38;1.77;;;1.10;;
21754;SDS011;11039;50.028;19.938;2022-09-09T14:00:05;1.42;;;1.00;;
21754;SDS011;11039;50.028;19.938;2022-09-09T14:02:34;2.45;;;1.20;;
21754;SDS011;11039;50.028;19.938;2022-09-09T14:05:00;1.90;;;1.13;;
21754;SDS011;11039;50.028;19.938;2022-09-09T14:07:26;3.08;;;1.20;;
21754;SDS011;11039;50.028;19.938;2022-09-09T14:09:53;1.75;;;1.00;;
21754;SDS011;11039;50.028;19.938;2022-09-09T14:12:19;2.95;;;1.20;;
21754;SDS011;11039;50.028;19.938;2022-09-09T14:14:46;2.33;;;1.40;;
21754;SDS011;11039;50.028;19.938;2022-09-09T14:17:12;2.42;;;1.15;;
21754;SDS011;11039;50.028;19.938;2022-09-09T14:19:39;1.42;;;1.23;;
21754;SDS011;11039;50.028;19.938;2022-09-09T14:22:05;1.70;;;1.20;;
21754;SDS011;11039;50.028;19.938;2022-09-09T14:24:31;1.50;;;1.27;;
21754;SDS011;11039;50.028;19.938;2022-09-09T14:26:58;1.77;;;1.20;;
21754;SDS011;11039;50.028;19.938;2022-09-09T14:29:24;1.40;;;1.10;;
21754;SDS011;11039;50.028;19.938;2022-09-09T14:31:51;1.38;;;1.20;;
21754;SDS011;11039;50.028;19.938;2022-09-09T14:34:17;2.30;;;1.13;;
21754;SDS011;11039;50.028;19.938;2022-09-09T14:36:43;1.65;;;1.30;;
21754;SDS011;11039;50.028;19.938;2022-09-09T14:39:10;1.77;;;1.23;;
21754;SDS011;11039;50.028;19.938;2022-09-09T14:41:36;1.92;;;1.45;;
21754;SDS011;11039;50.028;19.938;2022-09-09T14:44:02;2.05;;;1.40;;
21754;SDS011;11039;50.028;19.938;2022-09-09T14:46:29;2.22;;;1.30;;
21754;SDS011;11039;50.028;19.938;2022-09-09T14:48:56;1.20;;;1.10;;
21754;SDS011;11039;50.028;19.938;2022-09-09T14:51:23;3.55;;;1.27;;
21754;SDS011;11039;50.028;19.938;2022-09-09T14:53:53;1.40;;;1.20;;
21754;SDS011;11039;50.028;19.938;2022-09-09T14:56:20;2.03;;;1.17;;
21754;SDS011;11039;50.028;19.938;2022-09-09T14:58:48;2.90;;;1.20;;
21754;SDS011;11039;50.028;19.938;2022-09-09T15:01:15;2.03;;;1.13;;
21754;SDS011;11039;50.028;19.938;2022-09-09T15:03:42;1.30;;;1.20;;
21754;SDS011;11039;50.028;19.938;2022-09-09T15:06:09;2.15;;;1.45;;
21754;SDS011;11039;50.028;19.938;2022-09-09T15:08:36;1.83;;;1.17;;
21754;SDS011;11039;50.028;19.938;2022-09-09T15:11:03;2.00;;;1.10;;
21754;SDS011;11039;50.028;19.938;2022-09-09T15:13:29;1.35;;;1.20;;
21754;SDS011;11039;50.028;19.938;2022-09-09T15:15:55;2.42;;;1.30;;
21754;SDS011;11039;50.028;19.938;2022-09-09T15:18:22;1.85;;;1.00;;
21754;SDS011;11039;50.028;19.938;2022-09-09T15:20:48;1.65;;;1.02;;
21754;SDS011;11039;50.028;19.938;2022-09-09T15:23:15;2.70;;;1.13;;
21754;SDS011;11039;50.028;19.938;2022-09-09T15:25:54;3.58;;;1.30;;
21754;SDS011;11039;50.028;19.938;2022-09-09T15:28:21;3.15;;;1.42;;
21754;SDS011;11039;50.028;19.938;2022-09-09T15:30:48;2.38;;;1.50;;
21754;SDS011;11039;50.028;19.938;2022-09-09T15:33:14;2.17;;;1.83;;
21754;SDS011;11039;50.028;19.938;2022-09-09T15:35:40;1.38;;;1.20;;
21754;SDS011;11039;50.028;19.938;2022-09-09T15:38:06;4.00;;;1.52;;
21754;SDS011;11039;50.028;19.938;2022-09-09T15:40:33;2.70;;;1.73;;
21754;SDS011;11039;50.028;19.938;2022-09-09T15:42:59;3.83;;;1.85;;
21754;SDS011;11039;50.028;19.938;2022-09-09T15:45:25;5.28;;;2.70;;
21754;SDS011;11039;50.028;19.938;2022-09-09T15:47:51;4.10;;;2.47;;
21754;SDS011;11039;50.028;19.938;2022-09-09T15:50:17;11.25;;;2.40;;
21754;SDS011;11039;50.028;19.938;2022-09-09T15:52:43;5.22;;;2.10;;
21754;SDS011;11039;50.028;19.938;2022-09-09T15:55:09;8.55;;;2.63;;
21754;SDS011;11039;50.028;19.938;2022-09-09T15:57:35;7.07;;;2.88;;
21754;SDS011;11039;50.028;19.938;2022-09-09T16:00:03;8.32;;;3.88;;
21754;SDS011;11039;50.028;19.938;2022-09-09T16:02:29;10.80;;;4.53;;
21754;SDS011;11039;50.028;19.938;2022-09-09T16:04:55;15.95;;;4.28;;
21754;SDS011;11039;50.028;19.938;2022-09-09T16:07:22;5.32;;;3.35;;
21754;SDS011;11039;50.028;19.938;2022-09-09T16:09:48;16.20;;;3.83;;
21754;SDS011;11039;50.028;19.938;2022-09-09T16:12:16;7.80;;;3.47;;
21754;SDS011;11039;50.028;19.938;2022-09-09T16:14:42;10.02;;;3.53;;
21754;SDS011;11039;50.028;19.938;2022-09-09T16:17:08;9.57;;;3.70;;
21754;SDS011;11039;50.028;19.938;2022-09-09T16:19:34;6.63;;;2.72;;
21754;SDS011;11039;50.028;19.938;2022-09-09T16:22:01;12.48;;;3.38;;
21754;SDS011;11039;50.028;19.938;2022-09-09T16:24:27;10.52;;;3.15;;
21754;SDS011;11039;50.028;19.938;2022-09-09T16:26:54;12.68;;;2.78;;
21754;SDS011;11039;50.028;19.938;2022-09-09T16:29:20;7.88;;;2.58;;
21754;SDS011;11039;50.028;19.938;2022-09-09T16:31:47;6.90;;;3.08;;
21754;SDS011;11039;50.028;19.938;2022-09-09T16:34:15;7.07;;;2.95;;
21754;SDS011;11039;50.028;19.938;2022-09-09T16:36:42;6.53;;;2.80;;
21754;SDS011;11039;50.028;19.938;2022-09-09T16:39:09;8.73;;;2.30;;
21754;SDS011;11039;50.028;19.938;2022-09-09T16:41:36;3.90;;;2.30;;